Time;durP1;ratioP1;P1;durP2;ratioP2;P2;SDS_P1;SDS_P2;PMS_P1;PMS_P2;Temp;Humidity;BMP_temperature;BMP_pressure;BME280_temperature;BME280_humidity;BME280_pressure;Samples;Min_cycle;Max_cycle;Signal;HPM_P1;HPM_P2
2020/12/10 00:02:15;;;;;;;21.33;7.90;;;3.40;99.90;;;;;;5097226;28;20028;-75
2020/12/10 00:04:40;;;;;;;27.15;8.68;;;3.50;99.90;;;;;;5095820;28;20023;-75
2020/12/10 00:07:06;;;;;;;24.48;8.45;;;3.50;99.90;;;;;;5095617;28;20020;-75
2020/12/10 00:09:33;;;;;;;24.15;8.48;;;3.50;99.90;;;;;;5097422;28;20040;-74
2020/12/10 00:12:03;;;;;;;22.48;9.35;;;3.50;99.90;;;;;;5085874;28;20024;-74
2020/12/10 00:14:29;;;;;;;24.60;8.35;;;3.50;99.90;;;;;;5076784;28;20448;-74
2020/12/10 00:16:55;;;;;;;25.67;9.57;;;3.50;99.90;;;;;;5087355;28;20013;-75
2020/12/10 00:19:20;;;;;;;21.60;8.88;;;3.40;99.90;;;;;;5095120;28;20035;-75
2020/12/10 00:21:46;;;;;;;20.75;8.57;;;3.40;99.90;;;;;;5096876;28;20484;-75
2020/12/10 00:24:12;;;;;;;24.42;8.75;;;3.50;99.90;;;;;;5078493;28;20500;-75
2020/12/10 00:26:38;;;;;;;27.02;10.50;;;3.50;99.90;;;;;;5076600;28;20162;-74
2020/12/10 00:29:03;;;;;;;20.15;8.48;;;3.40;99.90;;;;;;5075046;28;20021;-75
2020/12/10 00:31:29;;;;;;;21.55;8.23;;;3.40;99.90;;;;;;5075148;28;20036;-74
2020/12/10 00:33:58;;;;;;;20.08;8.00;;;3.50;99.90;;;;;;5076602;28;20381;-73
2020/12/10 00:36:23;;;;;;;19.92;7.68;;;3.40;99.90;;;;;;5078122;28;20051;-74
2020/12/10 00:38:49;;;;;;;21.20;8.35;;;3.40;99.90;;;;;;5075270;28;20484;-73
2020/12/10 00:41:14;;;;;;;20.00;7.35;;;3.40;99.90;;;;;;5093541;28;20021;-73
2020/12/10 00:43:41;;;;;;;24.08;7.68;;;3.40;99.90;;;;;;5096425;28;20108;-73
2020/12/10 00:46:06;;;;;;;21.55;8.45;;;3.40;99.90;;;;;;5095732;28;20032;-73
2020/12/10 00:48:32;;;;;;;21.80;9.15;;;3.30;99.90;;;;;;5092599;28;20020;-73
2020/12/10 00:50:59;;;;;;;20.05;7.43;;;3.40;99.90;;;;;;5085203;28;20031;-73
2020/12/10 00:53:24;;;;;;;21.08;8.23;;;3.40;99.90;;;;;;5087497;28;20024;-73
2020/12/10 00:55:53;;;;;;;19.23;7.53;;;3.40;99.90;;;;;;5087133;28;20036;-74
2020/12/10 00:58:18;;;;;;;16.70;7.13;;;3.40;99.90;;;;;;5083318;28;20050;-73
2020/12/10 01:00:44;;;;;;;21.30;8.55;;;3.40;99.90;;;;;;5087536;28;20031;-74
2020/12/10 01:03:09;;;;;;;20.73;7.63;;;3.30;99.90;;;;;;5093165;28;20020;-73
2020/12/10 01:05:35;;;;;;;22.25;8.07;;;3.30;99.90;;;;;;5096013;28;20031;-74
2020/12/10 01:08:01;;;;;;;22.10;8.05;;;3.30;99.90;;;;;;5093065;28;20024;-74
2020/12/10 01:10:26;;;;;;;18.73;6.63;;;3.30;99.90;;;;;;5088177;28;20477;-74
2020/12/10 01:12:52;;;;;;;21.52;7.88;;;3.30;99.90;;;;;;5088163;28;20381;-74
2020/12/10 01:15:17;;;;;;;19.70;7.38;;;3.30;99.90;;;;;;5074612;28;20512;-74
2020/12/10 01:17:43;;;;;;;20.02;7.18;;;3.30;99.90;;;;;;5074111;28;20037;-74
2020/12/10 01:20:12;;;;;;;15.13;6.07;;;3.30;99.90;;;;;;5075392;28;20028;-74
2020/12/10 01:22:37;;;;;;;16.50;6.25;;;3.30;99.90;;;;;;5086131;28;20032;-74
2020/12/10 01:25:05;;;;;;;22.33;8.20;;;3.30;99.90;;;;;;5086488;28;20036;-74
2020/12/10 01:27:30;;;;;;;18.10;6.90;;;3.30;99.90;;;;;;5075291;28;20024;-74
2020/12/10 01:29:59;;;;;;;19.95;6.80;;;3.30;99.90;;;;;;5085557;28;20024;-74
2020/12/10 01:32:25;;;;;;;15.60;6.50;;;3.30;99.90;;;;;;5093211;28;20441;-75
2020/12/10 01:34:51;;;;;;;15.88;6.40;;;3.20;99.90;;;;;;5078281;28;20493;-75
2020/12/10 01:37:18;;;;;;;18.38;6.88;;;3.20;99.90;;;;;;5095715;28;20059;-75
2020/12/10 01:39:44;;;;;;;20.13;6.95;;;3.20;99.90;;;;;;5082590;28;20048;-74
2020/12/10 01:42:10;;;;;;;17.27;7.20;;;3.20;99.90;;;;;;5073863;28;20035;-74
2020/12/10 01:44:35;;;;;;;16.90;6.68;;;3.20;99.90;;;;;;5079963;28;20452;-74
2020/12/10 01:47:01;;;;;;;16.65;7.00;;;3.20;99.90;;;;;;5094015;28;20103;-74
2020/12/10 01:49:26;;;;;;;16.98;6.35;;;3.20;99.90;;;;;;5094536;28;20020;-74
2020/12/10 01:51:53;;;;;;;15.65;6.75;;;3.20;99.90;;;;;;5094819;28;20472;-73
2020/12/10 01:54:19;;;;;;;18.42;6.80;;;3.10;99.90;;;;;;5093937;28;20477;-73
2020/12/10 01:56:45;;;;;;;17.33;7.05;;;3.10;99.90;;;;;;5095033;28;20024;-73
2020/12/10 01:59:12;;;;;;;16.42;6.25;;;3.00;99.90;;;;;;5093648;28;20035;-73
2020/12/10 02:01:38;;;;;;;17.92;6.60;;;3.00;99.90;;;;;;5085872;28;20104;-73
2020/12/10 02:04:22;;;;;;;24.15;6.50;;;3.00;99.90;;;;;;5088008;28;20110;-73
2020/12/10 02:06:48;;;;;;;19.40;7.30;;;2.90;99.90;;;;;;5089523;28;20031;-73
2020/12/10 02:09:13;;;;;;;17.90;6.30;;;2.90;99.90;;;;;;5078067;28;20032;-73
2020/12/10 02:11:39;;;;;;;18.42;6.80;;;2.90;99.90;;;;;;5074700;28;20422;-73
2020/12/10 02:14:04;;;;;;;17.20;6.25;;;2.90;99.90;;;;;;5078796;28;20088;-74
2020/12/10 02:16:30;;;;;;;18.15;5.97;;;2.90;99.90;;;;;;5094064;28;20024;-75
2020/12/10 02:18:55;;;;;;;15.00;6.63;;;2.80;99.90;;;;;;5094211;28;20085;-75
2020/12/10 02:21:21;;;;;;;19.88;6.97;;;2.80;99.90;;;;;;5093048;28;20028;-75
2020/12/10 02:23:51;;;;;;;17.65;6.88;;;2.80;99.90;;;;;;5094445;28;20020;-74
2020/12/10 02:26:21;;;;;;;15.75;6.53;;;2.80;99.90;;;;;;5082320;28;20384;-74
2020/12/10 02:28:47;;;;;;;14.73;5.85;;;2.80;99.90;;;;;;5094688;28;20020;-73
2020/12/10 02:31:19;;;;;;;19.65;6.65;;;2.80;99.90;;;;;;5094402;28;20026;-73
2020/12/10 02:33:44;;;;;;;18.88;6.68;;;2.70;99.90;;;;;;5094554;28;20027;-73
2020/12/10 02:36:09;;;;;;;17.80;7.13;;;2.80;99.90;;;;;;5094398;28;20054;-74
2020/12/10 02:38:35;;;;;;;21.60;8.13;;;2.80;99.90;;;;;;5094425;28;20051;-74
2020/12/10 02:41:00;;;;;;;18.75;7.32;;;2.70;99.90;;;;;;5092743;28;20069;-74
2020/12/10 02:43:26;;;;;;;18.42;6.70;;;2.60;99.90;;;;;;5094344;28;20028;-74
2020/12/10 02:45:51;;;;;;;19.23;6.95;;;2.60;99.90;;;;;;5091056;28;20028;-73
2020/12/10 02:48:17;;;;;;;19.10;7.00;;;2.60;99.90;;;;;;5074051;28;20543;-73
2020/12/10 02:50:42;;;;;;;18.92;6.43;;;2.60;99.90;;;;;;5073749;28;20028;-74
2020/12/10 02:53:08;;;;;;;15.40;6.63;;;2.60;99.90;;;;;;5074415;28;20035;-73
2020/12/10 02:55:34;;;;;;;16.40;6.47;;;2.60;99.90;;;;;;5073939;28;20059;-74
2020/12/10 02:58:00;;;;;;;22.42;6.82;;;2.50;99.90;;;;;;5071842;28;20071;-74
2020/12/10 03:00:26;;;;;;;19.95;7.13;;;2.50;99.90;;;;;;5094158;28;20032;-73
2020/12/10 03:02:51;;;;;;;17.25;6.43;;;2.40;99.90;;;;;;5094020;28;20035;-73
2020/12/10 03:05:17;;;;;;;17.15;6.72;;;2.40;99.90;;;;;;5092748;28;20025;-74
2020/12/10 03:07:42;;;;;;;20.35;6.78;;;2.30;99.90;;;;;;5093770;28;20476;-75
2020/12/10 03:10:08;;;;;;;16.08;6.45;;;2.20;99.90;;;;;;5093322;28;20027;-73
2020/12/10 03:12:33;;;;;;;18.17;6.72;;;2.10;99.90;;;;;;5092867;28;20028;-73
2020/12/10 03:14:59;;;;;;;20.38;6.63;;;2.10;99.90;;;;;;5093518;28;20055;-75
2020/12/10 03:17:25;;;;;;;19.38;7.32;;;2.00;99.90;;;;;;5093754;28;20028;-75
2020/12/10 03:19:50;;;;;;;18.48;7.40;;;1.90;99.90;;;;;;5084333;28;20025;-74
2020/12/10 03:22:16;;;;;;;19.27;6.88;;;1.80;99.90;;;;;;5073416;28;20039;-75
2020/12/10 03:24:41;;;;;;;19.08;6.80;;;1.80;99.90;;;;;;5072167;28;20020;-74
2020/12/10 03:27:07;;;;;;;18.42;6.82;;;1.70;99.90;;;;;;5076890;28;20024;-74
2020/12/10 03:29:33;;;;;;;16.85;6.85;;;1.70;99.90;;;;;;5077675;28;20020;-74
2020/12/10 03:31:59;;;;;;;17.75;6.55;;;1.70;99.90;;;;;;5077552;28;20393;-73
2020/12/10 03:34:25;;;;;;;20.05;7.40;;;1.70;99.90;;;;;;5080800;28;20054;-73
2020/12/10 03:36:53;;;;;;;19.83;6.88;;;1.60;99.90;;;;;;5088022;28;20025;-73
2020/12/10 03:39:21;;;;;;;17.77;6.40;;;1.50;99.90;;;;;;5076623;28;20028;-74
2020/12/10 03:41:48;;;;;;;17.13;6.78;;;1.50;99.90;;;;;;5098069;28;20117;-73
2020/12/10 03:44:19;;;;;;;21.00;7.05;;;1.40;99.90;;;;;;5096834;28;20121;-74
2020/12/10 03:46:45;;;;;;;17.13;6.50;;;1.40;99.90;;;;;;5088577;28;20029;-73
2020/12/10 03:49:11;;;;;;;19.10;6.97;;;1.30;99.90;;;;;;5077280;28;20029;-73
2020/12/10 03:51:37;;;;;;;17.63;6.95;;;1.20;99.90;;;;;;5077436;28;20048;-75
2020/12/10 03:54:04;;;;;;;17.05;6.38;;;1.10;99.90;;;;;;5077676;28;20056;-74
2020/12/10 03:56:31;;;;;;;17.60;6.68;;;1.10;99.90;;;;;;5095440;28;20024;-73
2020/12/10 03:58:57;;;;;;;16.73;6.38;;;1.10;99.90;;;;;;5096990;28;20070;-73
2020/12/10 04:01:23;;;;;;;18.05;7.43;;;1.00;99.90;;;;;;5096217;28;20028;-74
2020/12/10 04:03:48;;;;;;;19.30;6.65;;;1.00;99.90;;;;;;5095592;28;20507;-73
2020/12/10 04:06:14;;;;;;;19.50;7.40;;;1.00;99.90;;;;;;5090068;28;20568;-74
2020/12/10 04:08:39;;;;;;;18.92;6.45;;;1.00;99.90;;;;;;5082885;28;20020;-73
2020/12/10 04:11:05;;;;;;;18.10;6.88;;;1.00;99.90;;;;;;5091161;28;20089;-74
2020/12/10 04:13:31;;;;;;;20.05;7.18;;;1.00;99.90;;;;;;5089581;28;20021;-74
2020/12/10 04:15:59;;;;;;;16.55;6.50;;;0.90;99.90;;;;;;5085988;28;20013;-74
2020/12/10 04:18:24;;;;;;;21.60;6.85;;;1.00;99.90;;;;;;5078007;28;20028;-73
2020/12/10 04:20:50;;;;;;;17.67;6.75;;;0.90;99.90;;;;;;5079895;28;20397;-74
2020/12/10 04:23:15;;;;;;;17.88;7.47;;;1.00;99.90;;;;;;5075424;28;20106;-74
2020/12/10 04:26:37;;;;;;;18.48;7.47;;;0.90;99.90;;;;;;5078962;28;20377;-74
2020/12/10 04:29:02;;;;;;;17.55;6.30;;;0.90;99.90;;;;;;5096705;28;20035;-75
2020/12/10 04:31:28;;;;;;;20.20;6.60;;;0.90;99.90;;;;;;5097224;28;20381;-74
2020/12/10 04:33:53;;;;;;;17.77;7.28;;;0.90;99.90;;;;;;5095248;28;20020;-75
2020/12/10 04:36:19;;;;;;;17.95;6.63;;;0.80;99.90;;;;;;5081440;28;20047;-75
2020/12/10 04:38:52;;;;;;;16.10;6.80;;;0.80;99.90;;;;;;5076213;28;20374;-74
2020/12/10 04:41:19;;;;;;;17.65;6.45;;;0.70;99.90;;;;;;5076939;28;20048;-74
2020/12/10 04:43:44;;;;;;;16.48;6.75;;;0.70;99.90;;;;;;5076614;28;20031;-73
2020/12/10 04:46:11;;;;;;;18.95;7.40;;;0.70;99.90;;;;;;5075684;28;20028;-73
2020/12/10 04:48:36;;;;;;;15.32;5.88;;;0.70;99.90;;;;;;5096209;28;20465;-75
2020/12/10 04:51:06;;;;;;;18.25;7.28;;;0.60;99.90;;;;;;5096593;28;20027;-75
2020/12/10 04:53:32;;;;;;;20.88;7.20;;;0.60;99.90;;;;;;5096835;28;20016;-74
2020/12/10 04:56:03;;;;;;;16.83;6.45;;;0.60;99.90;;;;;;5095523;28;20435;-73
2020/12/10 04:58:29;;;;;;;16.63;6.90;;;0.50;99.90;;;;;;5096441;28;20041;-74
2020/12/10 05:01:02;;;;;;;16.92;7.10;;;0.50;99.90;;;;;;5096259;28;20028;-75
2020/12/10 05:03:28;;;;;;;18.05;7.03;;;0.40;99.90;;;;;;5096496;28;20024;-74
2020/12/10 05:06:07;;;;;;;18.20;6.85;;;0.40;99.90;;;;;;5096511;28;20032;-74
2020/12/10 05:08:33;;;;;;;14.88;6.38;;;0.40;99.90;;;;;;5095882;28;20020;-74
2020/12/10 05:10:59;;;;;;;20.13;7.13;;;0.30;99.90;;;;;;5097092;28;20020;-74
2020/12/10 05:13:25;;;;;;;21.60;6.78;;;0.40;99.90;;;;;;5096380;28;20051;-74
2020/12/10 05:15:51;;;;;;;19.17;6.57;;;0.40;99.90;;;;;;5081967;28;20032;-73
2020/12/10 05:18:18;;;;;;;19.85;6.90;;;0.40;99.90;;;;;;5076138;28;20024;-73
2020/12/10 05:20:55;;;;;;;19.85;7.20;;;0.40;99.90;;;;;;5075567;28;20367;-74
2020/12/10 05:23:32;;;;;;;17.88;6.38;;;0.40;99.90;;;;;;5089634;28;20054;-74
2020/12/10 05:26:01;;;;;;;20.10;7.35;;;0.50;99.90;;;;;;5095780;28;20043;-74
2020/12/10 05:28:27;;;;;;;20.02;6.40;;;0.40;99.90;;;;;;5078634;28;20024;-74
2020/12/10 05:31:04;;;;;;;18.00;6.60;;;0.50;99.90;;;;;;5095779;28;20523;-74
2020/12/10 05:33:30;;;;;;;18.33;7.15;;;0.50;99.90;;;;;;5095084;28;20063;-74
2020/12/10 05:36:11;;;;;;;18.55;7.05;;;0.50;99.90;;;;;;5076591;28;20036;-74
2020/12/10 05:39:08;;;;;;;16.08;6.57;;;0.50;99.90;;;;;;5081494;28;20032;-74
2020/12/10 05:41:35;;;;;;;18.35;6.90;;;0.50;99.90;;;;;;5094090;28;20097;-75
2020/12/10 05:44:24;;;;;;;16.55;6.38;;;0.50;99.90;;;;;;5095776;28;20066;-74
2020/12/10 05:47:05;;;;;;;16.75;5.85;;;0.50;99.90;;;;;;5095822;28;20081;-74
2020/12/10 05:49:30;;;;;;;17.45;6.38;;;0.50;99.90;;;;;;5079971;28;20081;-74
2020/12/10 05:52:03;;;;;;;15.00;5.78;;;0.50;99.90;;;;;;5075242;28;20021;-74
2020/12/10 05:54:32;;;;;;;18.75;7.40;;;0.50;99.90;;;;;;5070859;28;20028;-74
2020/12/10 05:57:00;;;;;;;18.45;6.75;;;0.50;99.90;;;;;;5085805;28;20646;-75
2020/12/10 05:59:30;;;;;;;17.08;5.53;;;0.60;99.90;;;;;;5079737;28;20389;-75
2020/12/10 06:02:07;;;;;;;18.25;6.28;;;0.60;99.90;;;;;;5073766;28;20031;-75
2020/12/10 06:04:33;;;;;;;17.25;6.05;;;0.60;99.90;;;;;;5074786;28;20024;-75
2020/12/10 06:07:00;;;;;;;15.50;6.20;;;0.60;99.90;;;;;;5077837;28;20561;-75
2020/12/10 06:09:26;;;;;;;14.57;6.20;;;0.60;99.90;;;;;;5081499;28;20012;-75
2020/12/10 06:12:05;;;;;;;16.10;5.75;;;0.60;99.90;;;;;;5094621;28;20081;-75
2020/12/10 06:14:31;;;;;;;17.48;6.43;;;0.60;99.90;;;;;;5094766;28;20033;-75
2020/12/10 06:17:08;;;;;;;16.20;5.97;;;0.60;99.90;;;;;;5080213;28;20077;-75
2020/12/10 06:19:34;;;;;;;15.43;6.03;;;0.60;99.90;;;;;;5075607;28;20031;-75
2020/12/10 06:22:23;;;;;;;18.35;6.68;;;0.60;99.90;;;;;;5073117;28;20025;-75
2020/12/10 06:24:48;;;;;;;17.58;6.00;;;0.60;99.90;;;;;;5082245;28;20036;-75
2020/12/10 06:27:33;;;;;;;15.40;5.95;;;0.70;99.90;;;;;;5088025;28;20031;-75
2020/12/10 06:30:19;;;;;;;15.57;6.38;;;0.70;99.90;;;;;;5092481;28;20103;-75
2020/12/10 06:32:49;;;;;;;15.63;6.07;;;0.70;99.90;;;;;;5094525;28;20028;-75
2020/12/10 06:35:33;;;;;;;16.80;6.05;;;0.70;99.90;;;;;;5084297;28;20026;-74
2020/12/10 06:38:00;;;;;;;16.48;6.35;;;0.70;99.90;;;;;;5092665;28;20127;-75
2020/12/10 06:40:34;;;;;;;16.05;6.40;;;0.80;99.90;;;;;;5094608;28;20047;-75
2020/12/10 06:43:00;;;;;;;17.08;6.30;;;0.80;99.90;;;;;;5092709;28;20124;-78
2020/12/10 06:45:34;;;;;;;17.23;6.05;;;0.80;99.90;;;;;;5094344;28;20056;-74
2020/12/10 06:48:04;;;;;;;14.25;5.70;;;0.80;99.90;;;;;;5074247;28;20109;-75
2020/12/10 06:50:32;;;;;;;18.10;5.93;;;0.80;99.90;;;;;;5080447;28;20027;-75
2020/12/10 06:53:07;;;;;;;15.55;5.05;;;0.80;99.90;;;;;;5094255;28;20496;-76
2020/12/10 06:55:32;;;;;;;15.55;6.10;;;0.80;99.90;;;;;;5094108;28;20038;-76
2020/12/10 06:58:06;;;;;;;14.27;6.43;;;0.80;99.90;;;;;;5075694;28;20115;-74
2020/12/10 07:00:38;;;;;;;14.43;5.93;;;0.80;99.90;;;;;;5074011;28;20025;-76
2020/12/10 07:03:21;;;;;;;15.07;5.07;;;0.80;99.90;;;;;;5072454;28;20025;-77
2020/12/10 07:05:47;;;;;;;16.10;5.75;;;0.80;99.90;;;;;;5072519;28;20044;-76
2020/12/10 07:08:15;;;;;;;16.40;5.85;;;0.80;99.90;;;;;;5075578;28;20071;-74
2020/12/10 07:10:45;;;;;;;18.20;6.00;;;0.80;99.90;;;;;;5074443;28;20052;-76
2020/12/10 07:13:28;;;;;;;12.57;5.53;;;0.80;99.90;;;;;;5089508;28;20016;-76
2020/12/10 07:15:54;;;;;;;16.42;5.63;;;0.70;99.90;;;;;;5075723;28;20027;-77
2020/12/10 07:18:20;;;;;;;16.40;6.03;;;0.70;99.90;;;;;;5073368;28;20095;-74
2020/12/10 07:20:45;;;;;;;12.82;5.30;;;0.70;99.90;;;;;;5072104;28;20055;-74
2020/12/10 07:23:11;;;;;;;13.52;5.20;;;0.70;99.90;;;;;;5082885;28;20477;-76
2020/12/10 07:25:37;;;;;;;15.05;5.82;;;0.70;99.90;;;;;;5093560;28;20408;-75
2020/12/10 07:28:02;;;;;;;17.85;5.70;;;0.60;99.90;;;;;;5079114;28;20158;-74
2020/12/10 07:30:30;;;;;;;14.40;5.40;;;0.60;99.90;;;;;;5092336;28;20552;-74
2020/12/10 07:32:58;;;;;;;14.68;5.38;;;0.60;99.90;;;;;;5093787;28;20045;-74
2020/12/10 07:35:31;;;;;;;14.90;5.15;;;0.60;99.90;;;;;;5092463;28;20115;-74
2020/12/10 07:38:07;;;;;;;16.20;5.75;;;0.60;99.90;;;;;;5092065;28;20489;-74
2020/12/10 07:40:33;;;;;;;13.13;5.43;;;0.60;99.90;;;;;;5093842;28;20020;-74
2020/12/10 07:43:09;;;;;;;17.13;5.63;;;0.60;99.90;;;;;;5092139;28;20028;-74
2020/12/10 07:45:36;;;;;;;17.58;6.80;;;0.60;99.90;;;;;;5093259;28;20020;-74
2020/12/10 07:48:04;;;;;;;16.70;5.60;;;0.60;99.90;;;;;;5093415;28;20481;-74
2020/12/10 07:50:31;;;;;;;13.25;4.95;;;0.60;99.90;;;;;;5092130;28;20417;-74
2020/12/10 07:53:03;;;;;;;16.05;5.85;;;0.60;99.90;;;;;;5093535;28;20113;-74
2020/12/10 07:55:33;;;;;;;13.30;4.43;;;0.60;99.90;;;;;;5091953;28;20024;-74
2020/12/10 07:58:11;;;;;;;15.10;5.20;;;0.60;99.90;;;;;;5092185;28;20032;-74
2020/12/10 08:00:38;;;;;;;16.83;5.18;;;0.70;99.90;;;;;;5092241;28;20028;-74
2020/12/10 08:03:26;;;;;;;17.55;5.85;;;0.70;99.90;;;;;;5091502;28;20481;-74
2020/12/10 08:06:07;;;;;;;13.15;5.03;;;0.70;99.90;;;;;;5074211;28;20030;-74
2020/12/10 08:08:35;;;;;;;13.20;5.07;;;0.70;99.90;;;;;;5072545;28;20505;-74
2020/12/10 08:11:16;;;;;;;13.55;5.85;;;0.70;99.90;;;;;;5073861;28;20078;-74
2020/12/10 08:14:01;;;;;;;15.20;5.32;;;0.80;99.90;;;;;;5075214;28;20397;-74
2020/12/10 08:16:41;;;;;;;14.18;5.28;;;0.80;99.90;;;;;;5077943;28;20024;-74
2020/12/10 08:19:12;;;;;;;15.93;5.40;;;0.70;99.90;;;;;;5076365;28;20028;-74
2020/12/10 08:21:38;;;;;;;14.23;5.43;;;0.80;99.90;;;;;;5076789;28;20029;-74
2020/12/10 08:24:04;;;;;;;20.10;6.13;;;0.80;99.90;;;;;;5075657;28;20042;-74
2020/12/10 08:26:29;;;;;;;14.80;5.93;;;0.80;99.90;;;;;;5076730;28;20115;-74
2020/12/10 08:28:56;;;;;;;15.65;6.07;;;0.80;99.90;;;;;;5077014;28;20024;-74
2020/12/10 08:31:25;;;;;;;20.58;7.25;;;0.80;99.90;;;;;;5076338;28;20412;-74
2020/12/10 08:33:51;;;;;;;17.77;4.93;;;0.80;99.90;;;;;;5076465;28;20473;-74
2020/12/10 08:36:29;;;;;;;15.05;5.57;;;0.80;99.90;;;;;;5074914;28;20493;-74
2020/12/10 08:38:57;;;;;;;9.17;3.27;;;0.80;99.90;;;;;;5075129;28;20032;-74
2020/12/10 08:41:24;;;;;;;14.38;5.72;;;0.90;99.90;;;;;;5074654;28;20123;-74
2020/12/10 08:44:01;;;;;;;12.77;4.80;;;1.00;99.90;;;;;;5074830;28;20029;-74
2020/12/10 08:46:27;;;;;;;15.32;5.47;;;1.00;99.90;;;;;;5076003;28;20033;-74
2020/12/10 08:48:57;;;;;;;16.73;5.88;;;1.10;99.90;;;;;;5076384;28;20066;-74
2020/12/10 08:51:36;;;;;;;13.65;5.38;;;1.00;99.90;;;;;;5076077;28;20021;-74
2020/12/10 08:54:02;;;;;;;12.68;5.28;;;1.10;99.90;;;;;;5074607;28;20092;-74
2020/12/10 08:56:34;;;;;;;13.50;5.72;;;1.20;99.90;;;;;;5075807;28;20029;-74
2020/12/10 08:59:00;;;;;;;14.98;5.63;;;1.30;99.90;;;;;;5074643;28;20020;-74
2020/12/10 09:01:25;;;;;;;14.65;5.75;;;1.30;99.90;;;;;;5076085;28;20029;-74
2020/12/10 09:03:51;;;;;;;17.08;5.70;;;1.40;99.90;;;;;;5074524;28;20060;-74
2020/12/10 09:06:16;;;;;;;17.73;6.47;;;1.50;99.90;;;;;;5075554;28;20024;-74
2020/12/10 09:08:42;;;;;;;16.83;6.10;;;1.50;99.90;;;;;;5141562;22;20044;-76
2020/12/10 09:11:08;;;;;;;14.13;5.88;;;1.60;99.90;;;;;;5095900;28;20032;-77
2020/12/10 09:13:34;;;;;;;13.65;5.53;;;1.70;99.90;;;;;;5094513;28;20119;-77
2020/12/10 09:15:59;;;;;;;16.15;5.75;;;1.60;99.90;;;;;;5096187;28;20056;-77
2020/12/10 09:18:25;;;;;;;15.95;5.35;;;1.60;99.90;;;;;;5095693;28;20035;-77
2020/12/10 09:20:52;;;;;;;15.95;5.63;;;1.60;99.90;;;;;;5095663;28;20054;-77
2020/12/10 09:23:17;;;;;;;15.63;6.18;;;1.70;99.90;;;;;;5094913;28;20077;-77
2020/12/10 09:25:43;;;;;;;18.65;6.40;;;1.70;99.90;;;;;;5092331;28;20024;-77
2020/12/10 09:28:09;;;;;;;13.07;5.25;;;1.80;99.90;;;;;;5095420;28;20503;-77
2020/12/10 09:30:38;;;;;;;17.65;6.07;;;1.80;99.90;;;;;;5094994;28;20012;-77
2020/12/10 09:33:05;;;;;;;17.67;6.53;;;1.90;99.90;;;;;;5095384;28;20086;-77
2020/12/10 09:35:31;;;;;;;12.63;5.47;;;1.90;99.90;;;;;;5093786;28;20024;-77
2020/12/10 09:37:57;;;;;;;17.42;6.95;;;2.00;99.90;;;;;;5095273;28;20103;-77
2020/12/10 09:40:22;;;;;;;15.80;5.97;;;2.10;99.90;;;;;;5094917;28;20055;-77
2020/12/10 09:42:49;;;;;;;17.17;5.88;;;2.20;99.90;;;;;;5094601;28;20032;-77
2020/12/10 09:45:15;;;;;;;17.65;6.38;;;2.20;99.90;;;;;;5095254;28;20032;-77
2020/12/10 09:47:48;;;;;;;16.20;5.80;;;2.20;99.90;;;;;;5093394;28;20008;-77
2020/12/10 09:50:30;;;;;;;21.63;6.70;;;2.20;99.90;;;;;;5092544;28;20063;-77
2020/12/10 09:53:02;;;;;;;14.85;6.65;;;2.20;99.90;;;;;;5094862;28;20119;-77
2020/12/10 09:58:02;;;;;;;17.00;6.43;;;2.20;99.90;;;;;;5082082;28;20067;-77
2020/12/10 10:00:28;;;;;;;17.73;6.38;;;2.30;99.90;;;;;;5073398;28;20097;-77
2020/12/10 10:02:54;;;;;;;16.77;6.10;;;2.30;99.90;;;;;;5074731;28;20025;-77
2020/12/10 10:05:19;;;;;;;17.20;6.20;;;2.30;99.90;;;;;;5074379;28;20465;-77
2020/12/10 10:07:45;;;;;;;18.38;6.60;;;2.30;99.90;;;;;;5074375;28;20027;-77
2020/12/10 10:10:10;;;;;;;16.08;6.68;;;2.40;99.90;;;;;;5074486;28;20056;-77
2020/12/10 10:12:36;;;;;;;16.58;6.53;;;2.40;99.90;;;;;;5073804;28;20021;-77
2020/12/10 10:15:02;;;;;;;16.35;6.38;;;2.40;99.90;;;;;;5074195;28;20030;-77
2020/12/10 10:17:27;;;;;;;16.77;6.93;;;2.40;99.90;;;;;;5074154;28;20465;-77
2020/12/10 10:19:53;;;;;;;23.80;7.72;;;2.40;99.90;;;;;;5074535;28;20028;-77
2020/12/10 10:22:19;;;;;;;20.35;6.47;;;2.40;99.90;;;;;;5072857;28;20021;-77
2020/12/10 10:24:45;;;;;;;15.02;6.28;;;2.50;99.90;;;;;;5073939;28;20044;-77
2020/12/10 10:27:10;;;;;;;18.10;6.70;;;2.50;99.90;;;;;;5073827;28;20158;-77
2020/12/10 10:29:36;;;;;;;20.58;7.50;;;2.50;99.90;;;;;;5074150;28;20024;-77
2020/12/10 10:32:01;;;;;;;18.60;6.85;;;2.50;99.90;;;;;;5074451;28;20036;-77
2020/12/10 10:34:27;;;;;;;16.38;6.40;;;2.60;99.90;;;;;;5072682;28;20388;-77
2020/12/10 10:36:52;;;;;;;18.88;7.18;;;2.60;99.90;;;;;;5073476;28;20393;-77
2020/12/10 10:39:18;;;;;;;17.73;7.28;;;2.60;99.90;;;;;;5074315;28;20444;-77
2020/12/10 10:41:45;;;;;;;15.60;5.95;;;2.60;99.90;;;;;;5074156;28;20090;-77
2020/12/10 10:44:11;;;;;;;19.70;6.68;;;2.70;99.90;;;;;;5072530;28;20470;-77
2020/12/10 10:46:36;;;;;;;19.83;7.07;;;2.70;99.90;;;;;;5073731;28;20027;-77
2020/12/10 10:49:03;;;;;;;15.85;6.05;;;2.70;99.90;;;;;;5073035;28;20021;-77
2020/12/10 10:51:29;;;;;;;17.85;6.60;;;2.70;99.90;;;;;;5073887;28;20016;-77
2020/12/10 10:53:54;;;;;;;15.63;6.38;;;2.70;99.90;;;;;;5073666;28;20036;-77
2020/12/10 10:56:21;;;;;;;18.13;7.43;;;2.70;99.90;;;;;;5073657;28;20074;-77
2020/12/10 10:58:47;;;;;;;15.38;6.35;;;2.80;99.90;;;;;;5072417;28;20024;-77
2020/12/10 11:01:13;;;;;;;16.30;6.82;;;2.80;99.90;;;;;;5072373;28;20400;-77
2020/12/10 11:03:39;;;;;;;16.85;5.85;;;2.80;99.90;;;;;;5072319;28;20020;-77
2020/12/10 11:06:05;;;;;;;16.38;6.80;;;2.80;99.90;;;;;;5072110;28;20025;-77
2020/12/10 11:08:31;;;;;;;19.75;7.03;;;2.80;99.90;;;;;;5071974;28;20020;-77
2020/12/10 11:10:57;;;;;;;14.23;6.40;;;2.90;99.90;;;;;;5073801;28;20466;-77
2020/12/10 11:13:22;;;;;;;17.40;6.57;;;2.90;99.90;;;;;;5072264;28;20017;-77
2020/12/10 11:15:48;;;;;;;20.00;7.13;;;3.00;99.90;;;;;;5073403;28;20021;-77
2020/12/10 11:18:13;;;;;;;18.25;6.13;;;3.00;99.90;;;;;;5073317;28;20033;-77
2020/12/10 11:20:39;;;;;;;17.42;7.18;;;3.10;99.90;;;;;;5072121;28;20058;-77
2020/12/10 11:23:04;;;;;;;20.15;7.07;;;3.10;99.90;;;;;;5072150;28;20024;-75
2020/12/10 11:25:30;;;;;;;20.58;7.00;;;3.20;99.90;;;;;;5073691;28;20494;-78
2020/12/10 11:27:56;;;;;;;19.98;7.32;;;3.20;99.90;;;;;;5072430;28;20023;-75
2020/12/10 11:30:24;;;;;;;18.20;6.82;;;3.20;99.90;;;;;;5073752;28;20041;-76
2020/12/10 11:32:49;;;;;;;16.15;6.38;;;3.20;99.90;;;;;;5072142;28;20024;-75
2020/12/10 11:35:15;;;;;;;19.13;8.07;;;3.30;99.90;;;;;;5073834;28;20040;-75
2020/12/10 11:37:40;;;;;;;16.45;6.35;;;3.30;99.90;;;;;;5073374;28;20102;-76
2020/12/10 11:40:06;;;;;;;18.90;6.75;;;3.40;99.90;;;;;;5073239;28;20028;-76
2020/12/10 11:42:32;;;;;;;18.65;6.32;;;3.40;99.90;;;;;;5073191;28;20032;-76
2020/12/10 11:45:00;;;;;;;19.90;7.15;;;3.40;99.90;;;;;;5073037;28;20115;-76
2020/12/10 11:47:27;;;;;;;16.08;6.68;;;3.50;99.90;;;;;;5073772;28;20092;-76
2020/12/10 11:49:52;;;;;;;18.60;7.30;;;3.50;99.90;;;;;;5075851;28;20027;-76
2020/12/10 11:52:18;;;;;;;14.52;6.47;;;3.50;99.90;;;;;;5075847;28;20389;-76
2020/12/10 11:54:49;;;;;;;16.25;6.85;;;3.60;99.90;;;;;;5077171;28;20462;-76
2020/12/10 11:57:15;;;;;;;18.77;6.07;;;3.50;99.90;;;;;;5075712;28;20025;-76
2020/12/10 11:59:43;;;;;;;17.25;7.15;;;3.60;99.90;;;;;;5077160;28;20032;-76
2020/12/10 12:02:09;;;;;;;22.23;6.68;;;3.70;99.90;;;;;;5075641;28;20082;-76
2020/12/10 12:04:36;;;;;;;15.32;6.07;;;3.70;99.90;;;;;;5076699;28;20397;-76
2020/12/10 12:07:03;;;;;;;15.20;6.45;;;3.80;99.90;;;;;;5075488;28;20017;-76
2020/12/10 12:09:28;;;;;;;19.83;7.47;;;3.90;99.90;;;;;;5076590;28;20115;-76
2020/12/10 12:11:54;;;;;;;16.35;6.63;;;3.90;99.90;;;;;;5076589;28;20253;-76
2020/12/10 12:14:20;;;;;;;15.98;6.60;;;4.00;99.90;;;;;;5076584;28;20031;-76
2020/12/10 12:16:46;;;;;;;14.98;6.53;;;4.10;99.90;;;;;;5076471;28;20143;-76
2020/12/10 12:19:12;;;;;;;14.77;6.30;;;4.20;99.90;;;;;;5076485;28;20074;-76
2020/12/10 12:21:37;;;;;;;15.15;6.60;;;4.30;99.90;;;;;;5076511;28;20021;-75
2020/12/10 12:24:03;;;;;;;18.40;6.75;;;4.40;99.90;;;;;;5075497;28;20020;-75
2020/12/10 12:26:30;;;;;;;21.30;6.97;;;4.40;99.90;;;;;;5074970;28;20386;-75
2020/12/10 12:28:56;;;;;;;14.48;6.00;;;4.50;99.90;;;;;;5075065;28;20492;-75
2020/12/10 12:31:29;;;;;;;15.55;6.60;;;4.40;99.90;;;;;;5075283;28;20013;-75
2020/12/10 12:33:55;;;;;;;17.05;6.53;;;4.30;99.90;;;;;;5076854;28;20035;-75
2020/12/10 12:36:20;;;;;;;15.80;6.20;;;4.30;99.90;;;;;;5076168;28;20020;-75
2020/12/10 12:38:46;;;;;;;16.48;6.35;;;4.20;99.90;;;;;;5076610;28;20028;-75
2020/12/10 12:41:12;;;;;;;15.35;6.25;;;4.30;99.90;;;;;;5076161;28;20385;-75
2020/12/10 12:43:37;;;;;;;14.40;5.82;;;4.30;99.90;;;;;;5076250;28;20461;-75
2020/12/10 12:46:05;;;;;;;15.18;6.10;;;4.40;99.90;;;;;;5076232;28;20016;-75
2020/12/10 12:48:31;;;;;;;14.30;5.55;;;4.40;99.90;;;;;;5074714;28;20389;-77
2020/12/10 12:50:57;;;;;;;17.58;6.50;;;4.30;99.90;;;;;;5076986;28;20016;-76
2020/12/10 12:53:23;;;;;;;17.08;6.70;;;4.10;99.90;;;;;;5075418;28;20039;-75
2020/12/10 12:55:48;;;;;;;15.45;6.30;;;4.00;99.90;;;;;;5074987;28;20032;-76